Terminal Aerodrome Forecast
Issued by NWS

Home | Current Version | Previous Version | Text Only | Print | Product List | Glossary On
Versions: 1 2 3 4 5 6 7 8 9 10 11 12 13 14 15 16 17 18 19 20 21 22 23 24 25 26
000
FTUS41 KPBZ 040500
TAFAGC
TAF
KAGC 040539Z 0406/0506 27010KT 6SM -RA BR BKN009 BKN019 OVC070
     FM041200 28005KT 2SM -SN OVC007
     FM041600 29005KT 5SM BR OVC010
     FM042300 32008KT 2SM -SN BR OVC007=

USA.gov is the U.S. government's official web portal to all federal, state and local government web resources and services.